Time;durP1;ratioP1;P1;durP2;ratioP2;P2;SDS_P1;SDS_P2;PMS_P1;PMS_P2;Temp;Humidity;BMP_temperature;BMP_pressure;BME280_temperature;BME280_humidity;BME280_pressure;Samples;Min_cycle;Max_cycle;Signal;HPM_P1;HPM_P2
2023/07/19 00:00:53;;;;;;;5.00;2.65;;;15.80;99.90;;;;;;5089353;28;20047;-81
2023/07/19 00:03:20;;;;;;;2.83;2.45;;;15.80;99.90;;;;;;5088293;28;20032;-83
2023/07/19 00:05:46;;;;;;;6.95;3.58;;;15.80;99.90;;;;;;5085139;28;20044;-82
2023/07/19 00:08:11;;;;;;;3.17;2.50;;;15.90;99.90;;;;;;5078515;28;20032;-81
2023/07/19 00:10:37;;;;;;;7.97;2.70;;;15.80;99.90;;;;;;5080834;28;20051;-82
2023/07/19 00:13:04;;;;;;;5.05;2.85;;;15.90;99.90;;;;;;5084771;28;20044;-81
2023/07/19 00:15:30;;;;;;;4.82;2.65;;;15.90;99.90;;;;;;5084655;28;20089;-82
2023/07/19 00:17:55;;;;;;;6.72;2.80;;;15.80;99.90;;;;;;5083708;28;20441;-82
2023/07/19 00:20:21;;;;;;;5.95;2.15;;;15.80;99.90;;;;;;5086138;28;20499;-82
2023/07/19 00:22:47;;;;;;;6.18;3.20;;;15.80;99.90;;;;;;5086349;28;20075;-82
2023/07/19 00:25:12;;;;;;;6.18;2.67;;;15.80;99.90;;;;;;5084683;28;20050;-82
2023/07/19 00:27:38;;;;;;;5.22;2.75;;;15.80;99.90;;;;;;5084563;28;20111;-82
2023/07/19 00:30:04;;;;;;;6.10;2.72;;;15.80;99.90;;;;;;5087783;28;20525;-82
2023/07/19 00:32:30;;;;;;;4.45;2.83;;;15.80;99.90;;;;;;5084963;28;20051;-82
2023/07/19 00:34:55;;;;;;;17.73;3.20;;;15.80;99.90;;;;;;5085228;28;20039;-82
2023/07/19 00:37:21;;;;;;;3.80;2.72;;;15.80;99.90;;;;;;5083503;28;20089;-81
2023/07/19 00:39:46;;;;;;;4.88;2.70;;;15.70;99.90;;;;;;5085158;28;20043;-82
2023/07/19 00:42:12;;;;;;;5.05;2.80;;;15.70;99.90;;;;;;5088677;28;20097;-82
2023/07/19 00:44:37;;;;;;;7.03;3.28;;;15.70;99.90;;;;;;5080858;28;20037;-80
2023/07/19 00:47:03;;;;;;;5.30;3.05;;;15.70;99.90;;;;;;5067615;28;20041;-81
2023/07/19 00:49:31;;;;;;;5.93;2.80;;;15.80;99.90;;;;;;5073863;28;20201;-82
2023/07/19 00:51:58;;;;;;;5.15;2.90;;;15.80;99.90;;;;;;5074107;28;20074;-83
2023/07/19 00:54:24;;;;;;;4.97;2.75;;;15.80;99.90;;;;;;5069164;28;20040;-82
2023/07/19 00:56:50;;;;;;;5.68;3.10;;;15.80;99.90;;;;;;5072625;28;20513;-80
2023/07/19 00:59:17;;;;;;;5.38;2.40;;;15.80;99.90;;;;;;5068946;28;20391;-80
2023/07/19 01:01:44;;;;;;;6.93;2.80;;;15.90;99.90;;;;;;5072775;28;20044;-82
2023/07/19 01:04:10;;;;;;;3.50;2.50;;;16.00;99.90;;;;;;5065102;28;20502;-81
2023/07/19 01:06:36;;;;;;;9.48;3.03;;;16.00;99.90;;;;;;5067727;28;20048;-82
2023/07/19 01:09:02;;;;;;;5.70;3.15;;;16.00;99.90;;;;;;5063885;28;20049;-82
2023/07/19 01:11:27;;;;;;;6.63;2.83;;;16.10;99.90;;;;;;5069516;28;20124;-82
2023/07/19 01:13:54;;;;;;;8.02;2.70;;;16.10;99.90;;;;;;5067004;28;20059;-82
2023/07/19 01:16:20;;;;;;;3.40;2.95;;;16.20;99.90;;;;;;5052770;28;20036;-82
2023/07/19 01:18:46;;;;;;;4.05;2.58;;;16.20;99.90;;;;;;5071251;28;20743;-82
2023/07/19 01:21:12;;;;;;;7.80;2.22;;;16.10;99.90;;;;;;5067963;28;20480;-82
2023/07/19 01:23:38;;;;;;;4.03;2.50;;;16.10;99.90;;;;;;5067368;28;20040;-82
2023/07/19 01:26:04;;;;;;;6.25;2.38;;;16.10;99.90;;;;;;5066925;28;20590;-82
2023/07/19 01:28:30;;;;;;;5.10;2.55;;;16.10;99.90;;;;;;5067619;28;20147;-82
2023/07/19 01:30:55;;;;;;;5.47;2.50;;;16.00;99.90;;;;;;5074070;28;20594;-82
2023/07/19 01:33:21;;;;;;;3.97;2.30;;;16.00;99.90;;;;;;5069796;28;20040;-82
2023/07/19 01:35:46;;;;;;;3.42;2.40;;;16.10;99.90;;;;;;5072638;28;20086;-82
2023/07/19 01:38:12;;;;;;;7.72;2.58;;;16.10;99.90;;;;;;5069026;28;20037;-82
2023/07/19 01:40:37;;;;;;;4.28;3.03;;;16.10;99.90;;;;;;5070239;28;20490;-82
2023/07/19 01:43:03;;;;;;;2.80;2.50;;;16.00;99.90;;;;;;5074524;28;20043;-80
2023/07/19 01:45:29;;;;;;;4.03;2.38;;;16.10;99.90;;;;;;5073006;28;20052;-82
2023/07/19 01:47:54;;;;;;;3.13;2.30;;;16.10;99.90;;;;;;5065965;28;20460;-80
2023/07/19 01:50:20;;;;;;;9.63;3.00;;;16.00;99.90;;;;;;5068881;28;20481;-82
2023/07/19 01:52:45;;;;;;;6.07;3.03;;;16.10;99.90;;;;;;5070416;28;20048;-81
2023/07/19 01:55:11;;;;;;;4.30;2.63;;;16.00;99.90;;;;;;5064314;28;20379;-82
2023/07/19 01:57:36;;;;;;;6.00;2.47;;;16.00;99.90;;;;;;5066281;28;20037;-82
2023/07/19 02:00:03;;;;;;;5.82;3.20;;;16.10;99.90;;;;;;5064142;28;20730;-80
2023/07/19 02:02:29;;;;;;;6.53;3.30;;;16.00;99.90;;;;;;5070108;28;20064;-83
2023/07/19 02:04:55;;;;;;;6.68;2.88;;;16.00;99.90;;;;;;5064420;28;20070;-82
2023/07/19 02:07:20;;;;;;;6.10;2.97;;;16.00;99.90;;;;;;5071811;28;20093;-82
2023/07/19 02:09:46;;;;;;;6.07;3.40;;;16.10;99.90;;;;;;5066078;28;20459;-80
2023/07/19 02:12:12;;;;;;;3.53;3.20;;;16.10;99.90;;;;;;5062039;28;20048;-82
2023/07/19 02:14:37;;;;;;;4.28;3.20;;;16.00;99.90;;;;;;5068207;28;20102;-82
2023/07/19 02:17:03;;;;;;;4.05;3.00;;;16.00;99.90;;;;;;5072356;28;20051;-82
2023/07/19 02:19:29;;;;;;;5.78;3.65;;;16.00;99.90;;;;;;5056813;28;20391;-82
2023/07/19 02:21:54;;;;;;;6.15;3.40;;;16.00;99.90;;;;;;5071504;28;20082;-81
2023/07/19 02:24:20;;;;;;;7.13;3.15;;;16.00;99.90;;;;;;5067819;28;20044;-82
2023/07/19 02:26:45;;;;;;;5.40;3.30;;;15.90;99.90;;;;;;5067058;28;20040;-82
2023/07/19 02:29:11;;;;;;;4.35;3.40;;;15.90;99.90;;;;;;5067858;28;20458;-82
2023/07/19 02:31:37;;;;;;;5.72;3.63;;;15.90;99.90;;;;;;5068132;28;20040;-82
2023/07/19 02:34:06;;;;;;;4.07;3.28;;;16.00;99.90;;;;;;5061642;28;20036;-82
2023/07/19 02:36:33;;;;;;;3.58;3.20;;;15.90;99.90;;;;;;5063665;28;20095;-81
2023/07/19 02:39:00;;;;;;;6.00;3.78;;;15.90;99.90;;;;;;5068442;28;20036;-81
2023/07/19 02:41:26;;;;;;;6.60;3.78;;;15.90;99.90;;;;;;5066188;28;20051;-82
2023/07/19 02:43:51;;;;;;;5.50;3.38;;;15.90;99.90;;;;;;5068785;28;20499;-81
2023/07/19 02:46:17;;;;;;;6.95;3.88;;;15.90;99.90;;;;;;5070198;28;20507;-82
2023/07/19 02:48:43;;;;;;;4.65;3.10;;;16.00;99.90;;;;;;5064884;28;20064;-82
2023/07/19 02:51:08;;;;;;;5.63;4.25;;;16.00;99.90;;;;;;5070169;28;20040;-82
2023/07/19 02:53:34;;;;;;;5.82;4.13;;;16.00;99.90;;;;;;5066449;28;20372;-82
2023/07/19 02:55:59;;;;;;;6.75;3.55;;;16.00;99.90;;;;;;5070964;28;20479;-80
2023/07/19 02:58:27;;;;;;;5.63;3.15;;;16.10;99.90;;;;;;5068707;28;20040;-82
2023/07/19 03:00:53;;;;;;;4.32;3.85;;;16.10;99.90;;;;;;5063841;28;20037;-82
2023/07/19 03:03:19;;;;;;;8.65;4.18;;;16.10;99.90;;;;;;5064072;28;20058;-80
2023/07/19 03:05:45;;;;;;;5.47;3.97;;;16.10;99.90;;;;;;5067219;28;20507;-82
2023/07/19 03:08:11;;;;;;;9.27;4.28;;;16.10;99.90;;;;;;5063769;28;20045;-82
2023/07/19 03:10:38;;;;;;;5.45;3.50;;;16.10;99.90;;;;;;5066113;28;20032;-82
2023/07/19 03:13:04;;;;;;;6.93;3.85;;;16.10;99.90;;;;;;5061386;28;20044;-80
2023/07/19 03:15:33;;;;;;;5.53;3.50;;;16.00;99.90;;;;;;5067121;28;20067;-80
2023/07/19 03:18:00;;;;;;;6.70;3.72;;;16.00;99.90;;;;;;5064140;28;20119;-82
2023/07/19 03:20:27;;;;;;;7.28;3.92;;;16.10;99.90;;;;;;5070330;28;20032;-82
2023/07/19 03:22:56;;;;;;;6.38;3.80;;;16.00;99.90;;;;;;5063471;28;20044;-82
2023/07/19 03:25:23;;;;;;;5.00;4.50;;;16.10;99.90;;;;;;5068029;28;20125;-82
2023/07/19 03:27:49;;;;;;;6.10;3.78;;;16.10;99.90;;;;;;5068922;28;20047;-80
2023/07/19 03:30:14;;;;;;;7.35;3.83;;;16.10;99.90;;;;;;5066117;28;21587;-82
2023/07/19 03:32:40;;;;;;;5.28;4.70;;;16.00;99.90;;;;;;5064798;28;20063;-80
2023/07/19 03:35:06;;;;;;;5.85;3.78;;;16.00;99.90;;;;;;5063199;28;20184;-82
2023/07/19 03:37:34;;;;;;;7.97;4.07;;;16.00;99.90;;;;;;5065813;28;20048;-82
2023/07/19 03:39:59;;;;;;;7.20;4.70;;;16.00;99.90;;;;;;5068950;28;20051;-82
2023/07/19 03:42:26;;;;;;;5.15;4.53;;;16.00;99.90;;;;;;5068973;28;20101;-82
2023/07/19 03:44:51;;;;;;;5.70;4.32;;;16.10;99.90;;;;;;5064970;28;20123;-81
2023/07/19 03:47:17;;;;;;;6.82;4.20;;;16.10;99.90;;;;;;5065029;28;20479;-82
2023/07/19 03:49:43;;;;;;;8.75;4.93;;;16.10;99.90;;;;;;5068349;28;20155;-82
2023/07/19 03:52:08;;;;;;;8.23;4.35;;;16.10;99.90;;;;;;5065130;28;20494;-82
2023/07/19 03:54:34;;;;;;;8.38;4.88;;;16.10;99.90;;;;;;5063589;28;20142;-82
2023/07/19 03:57:00;;;;;;;8.85;4.70;;;16.10;99.90;;;;;;5069263;28;20037;-81
2023/07/19 03:59:26;;;;;;;9.70;4.90;;;16.20;99.90;;;;;;5070038;28;20116;-81
2023/07/19 04:01:52;;;;;;;7.97;5.60;;;16.20;99.90;;;;;;5067533;28;20464;-81
2023/07/19 04:04:17;;;;;;;6.97;5.28;;;16.10;99.90;;;;;;5062082;28;20041;-82
2023/07/19 04:06:43;;;;;;;5.95;4.95;;;16.20;99.90;;;;;;5068196;28;20064;-81
2023/07/19 04:09:09;;;;;;;8.25;5.15;;;16.20;99.90;;;;;;5066303;28;20821;-79
2023/07/19 04:11:35;;;;;;;9.00;5.25;;;16.20;99.90;;;;;;5066574;28;20479;-80
2023/07/19 04:14:00;;;;;;;9.40;5.03;;;16.20;99.90;;;;;;5066601;28;20411;-81
2023/07/19 04:16:26;;;;;;;8.02;4.80;;;16.20;99.90;;;;;;5065667;28;20071;-84
2023/07/19 04:18:51;;;;;;;5.93;5.30;;;16.20;99.90;;;;;;5070112;28;20037;-83
2023/07/19 04:21:17;;;;;;;5.40;4.78;;;16.30;99.90;;;;;;5069074;28;20048;-83
2023/07/19 04:23:43;;;;;;;7.75;5.10;;;16.20;99.90;;;;;;5065549;28;20417;-83
2023/07/19 04:26:08;;;;;;;9.98;5.25;;;16.30;99.90;;;;;;5067706;28;20041;-82
2023/07/19 04:28:34;;;;;;;8.63;5.45;;;16.30;99.90;;;;;;5073764;28;20036;-82
2023/07/19 04:30:59;;;;;;;8.85;5.32;;;16.30;99.90;;;;;;5067078;28;20049;-81
2023/07/19 04:33:25;;;;;;;6.10;5.18;;;16.30;99.90;;;;;;5064449;28;20086;-81
2023/07/19 04:35:50;;;;;;;9.68;5.68;;;16.40;99.90;;;;;;5068931;28;20058;-81
2023/07/19 04:38:16;;;;;;;8.13;5.00;;;16.40;99.90;;;;;;5071207;28;20036;-81
2023/07/19 04:40:42;;;;;;;10.68;5.75;;;16.40;99.90;;;;;;5071456;28;20125;-82
2023/07/19 04:43:07;;;;;;;7.82;5.00;;;16.40;99.90;;;;;;5060998;28;20402;-81
2023/07/19 04:45:33;;;;;;;6.22;5.22;;;16.50;99.90;;;;;;5068025;28;20044;-80
2023/07/19 04:47:58;;;;;;;6.63;5.50;;;16.50;99.90;;;;;;5065772;28;20044;-80
2023/07/19 04:50:24;;;;;;;10.23;5.72;;;16.60;99.90;;;;;;5069494;28;20036;-82
2023/07/19 04:52:51;;;;;;;7.97;5.30;;;16.60;99.90;;;;;;5076510;28;20036;-80
2023/07/19 04:55:16;;;;;;;8.32;5.53;;;16.60;99.90;;;;;;5071234;28;20072;-81
2023/07/19 04:57:42;;;;;;;7.88;5.90;;;16.60;99.90;;;;;;5070267;28;20106;-80
2023/07/19 05:00:11;;;;;;;14.75;6.00;;;16.70;99.90;;;;;;5069322;28;20181;-81
2023/07/19 05:02:39;;;;;;;7.07;5.72;;;16.70;99.90;;;;;;5073406;28;20094;-80
2023/07/19 05:05:08;;;;;;;11.70;5.43;;;16.70;99.90;;;;;;5071276;28;20121;-79
2023/07/19 05:07:35;;;;;;;11.73;5.60;;;16.80;99.90;;;;;;5070428;28;20128;-82
2023/07/19 05:10:02;;;;;;;9.05;5.63;;;16.80;99.90;;;;;;5077863;28;20052;-81
2023/07/19 05:12:29;;;;;;;8.85;5.43;;;16.90;99.90;;;;;;5074545;28;20566;-80
2023/07/19 05:14:55;;;;;;;8.60;5.22;;;16.80;99.90;;;;;;5067080;28;20040;-81
2023/07/19 05:17:21;;;;;;;9.80;4.53;;;16.90;99.90;;;;;;5068931;28;20047;-81
2023/07/19 05:19:46;;;;;;;15.40;5.50;;;16.90;99.90;;;;;;5069600;28;20052;-81
2023/07/19 05:22:12;;;;;;;6.93;5.10;;;16.90;99.90;;;;;;5076743;28;20037;-81
2023/07/19 05:24:37;;;;;;;6.57;4.82;;;16.90;99.90;;;;;;5073461;28;20028;-79
2023/07/19 05:27:03;;;;;;;7.75;4.55;;;16.90;99.90;;;;;;5068503;28;20487;-80
2023/07/19 05:29:29;;;;;;;7.90;4.35;;;16.90;99.90;;;;;;5076047;28;20033;-80
2023/07/19 05:31:54;;;;;;;8.07;4.43;;;16.90;99.90;;;;;;5071013;28;20028;-80
2023/07/19 05:34:22;;;;;;;8.23;4.20;;;16.90;99.90;;;;;;5073549;28;20040;-81
2023/07/19 05:36:47;;;;;;;6.78;4.78;;;17.00;99.90;;;;;;5073416;28;20068;-80
2023/07/19 05:39:13;;;;;;;8.10;4.00;;;16.90;99.90;;;;;;5069405;28;20068;-80
2023/07/19 05:41:39;;;;;;;6.95;3.65;;;17.00;99.90;;;;;;5074924;28;20040;-81
2023/07/19 05:44:04;;;;;;;8.32;3.38;;;17.00;99.90;;;;;;5075117;28;20123;-81
2023/07/19 05:46:30;;;;;;;4.70;3.28;;;17.00;99.90;;;;;;5065851;28;20127;-80
2023/07/19 05:48:56;;;;;;;4.82;3.10;;;17.00;99.90;;;;;;5067212;28;20100;-80
2023/07/19 05:51:21;;;;;;;7.72;3.38;;;17.00;99.90;;;;;;5070108;28;20086;-80
2023/07/19 05:53:47;;;;;;;8.88;2.92;;;17.10;99.90;;;;;;5065182;28;20093;-80
2023/07/19 05:56:13;;;;;;;4.57;2.83;;;17.10;99.90;;;;;;5074584;28;20106;-81
2023/07/19 05:58:38;;;;;;;8.35;3.13;;;17.10;99.90;;;;;;5073341;28;20053;-82
2023/07/19 06:01:07;;;;;;;8.75;3.63;;;17.10;99.90;;;;;;5069570;28;20037;-81
2023/07/19 06:03:33;;;;;;;6.65;3.20;;;17.10;99.90;;;;;;5068729;28;20043;-82
2023/07/19 06:06:02;;;;;;;8.88;3.35;;;17.20;99.90;;;;;;5064146;28;20044;-82
2023/07/19 06:08:27;;;;;;;5.63;2.70;;;17.10;99.90;;;;;;5067908;28;20783;-83
2023/07/19 06:10:53;;;;;;;10.45;3.20;;;17.10;99.90;;;;;;5056321;28;20053;-78
2023/07/19 06:13:19;;;;;;;6.57;3.05;;;17.20;99.90;;;;;;5069980;28;20048;-79
2023/07/19 06:15:44;;;;;;;3.83;2.50;;;17.10;99.90;;;;;;5064173;28;20108;-80
2023/07/19 06:18:10;;;;;;;5.40;3.72;;;17.10;99.90;;;;;;5063326;28;20499;-79
2023/07/19 06:20:36;;;;;;;5.63;3.30;;;17.20;99.90;;;;;;5065985;28;20041;-80
2023/07/19 06:23:02;;;;;;;10.45;3.88;;;17.20;99.90;;;;;;5069852;28;20124;-79
2023/07/19 06:25:27;;;;;;;8.57;3.30;;;17.30;99.90;;;;;;5066304;28;20054;-78
2023/07/19 06:27:53;;;;;;;5.10;2.78;;;17.30;99.90;;;;;;5068460;28;20097;-79
2023/07/19 06:30:19;;;;;;;8.20;2.88;;;17.40;99.90;;;;;;5068418;28;20468;-79
2023/07/19 06:32:44;;;;;;;5.15;2.95;;;17.40;99.90;;;;;;5071054;28;20051;-79
2023/07/19 06:35:10;;;;;;;4.53;2.70;;;17.50;99.90;;;;;;5071166;28;20039;-79
2023/07/19 06:37:35;;;;;;;6.85;3.10;;;17.60;99.90;;;;;;5064333;28;20119;-79
2023/07/19 06:40:03;;;;;;;6.18;3.08;;;17.50;99.90;;;;;;5071704;28;20044;-79
2023/07/19 06:42:30;;;;;;;9.98;3.78;;;17.60;99.90;;;;;;5063824;28;20142;-79
2023/07/19 06:44:56;;;;;;;7.40;2.97;;;17.50;99.90;;;;;;5063691;28;20048;-79
2023/07/19 06:47:22;;;;;;;3.67;2.65;;;17.60;99.90;;;;;;5064589;28;20422;-79
2023/07/19 06:49:47;;;;;;;11.98;3.22;;;17.60;99.90;;;;;;5064188;28;20580;-79
2023/07/19 06:52:13;;;;;;;7.72;3.05;;;17.70;99.90;;;;;;5060386;28;20048;-79
2023/07/19 06:54:39;;;;;;;9.15;3.58;;;17.80;99.90;;;;;;5063594;28;20040;-79
2023/07/19 06:57:05;;;;;;;3.42;2.30;;;17.70;99.90;;;;;;5062365;28;20040;-79
2023/07/19 06:59:31;;;;;;;8.90;3.13;;;17.80;99.90;;;;;;5066385;28;20044;-79
2023/07/19 07:01:56;;;;;;;4.75;2.83;;;17.80;99.90;;;;;;5064149;28;20702;-79
2023/07/19 07:04:22;;;;;;;3.78;2.20;;;17.80;99.90;;;;;;5061516;28;20445;-79
2023/07/19 07:06:47;;;;;;;7.68;2.53;;;17.90;99.90;;;;;;5061626;28;20036;-79
2023/07/19 07:09:16;;;;;;;8.70;2.35;;;18.00;99.90;;;;;;5067051;28;20466;-79
2023/07/19 07:11:41;;;;;;;6.50;2.33;;;18.00;99.90;;;;;;5062755;28;20052;-79
2023/07/19 07:14:08;;;;;;;5.05;1.88;;;18.00;99.90;;;;;;5064157;28;20040;-79
2023/07/19 07:16:34;;;;;;;2.42;1.30;;;18.00;99.90;;;;;;5068520;28;20045;-79
2023/07/19 07:18:59;;;;;;;4.82;1.92;;;18.00;99.90;;;;;;5061250;28;20410;-80
2023/07/19 07:21:26;;;;;;;5.07;2.13;;;18.00;99.90;;;;;;5068124;28;20040;-80
2023/07/19 07:23:51;;;;;;;8.93;2.00;;;18.10;99.90;;;;;;5061046;28;20041;-79
2023/07/19 07:26:17;;;;;;;2.47;1.52;;;18.10;99.90;;;;;;5064140;28;20086;-79
2023/07/19 07:28:43;;;;;;;4.40;1.48;;;18.10;99.90;;;;;;5062490;28;20044;-79
2023/07/19 07:31:09;;;;;;;5.28;1.83;;;18.00;99.90;;;;;;5067737;28;20051;-79
2023/07/19 07:33:35;;;;;;;5.65;1.83;;;18.10;99.90;;;;;;5059054;28;20044;-79
2023/07/19 07:36:01;;;;;;;2.92;1.40;;;18.10;99.90;;;;;;5058581;28;20046;-79
2023/07/19 07:38:27;;;;;;;2.95;1.38;;;18.10;99.90;;;;;;5069834;28;20477;-79
2023/07/19 07:41:01;;;;;;;2.38;1.20;;;18.10;99.90;;;;;;5065953;28;20479;-79
2023/07/19 07:43:29;;;;;;;3.13;1.58;;;18.10;99.90;;;;;;5058938;28;20127;-79
2023/07/19 07:45:55;;;;;;;5.28;1.40;;;18.10;99.90;;;;;;5062234;28;20040;-79
2023/07/19 07:48:22;;;;;;;3.55;1.42;;;18.10;99.90;;;;;;5062299;28;20099;-78
2023/07/19 07:50:52;;;;;;;2.67;0.90;;;18.10;99.90;;;;;;5062956;28;20511;-79
2023/07/19 07:53:21;;;;;;;4.13;1.42;;;18.10;99.90;;;;;;5061935;28;20136;-79
2023/07/19 07:55:48;;;;;;;5.85;1.00;;;18.10;99.90;;;;;;5068554;28;20123;-79
2023/07/19 07:58:14;;;;;;;4.80;1.30;;;18.00;99.90;;;;;;5064939;28;20044;-79
2023/07/19 08:00:41;;;;;;;3.13;1.20;;;18.00;99.90;;;;;;5066977;28;20051;-79
2023/07/19 08:03:07;;;;;;;3.40;0.90;;;17.90;99.90;;;;;;5066155;28;20079;-79
2023/07/19 08:05:33;;;;;;;3.90;1.30;;;17.80;99.90;;;;;;5067248;28;20124;-79
2023/07/19 08:07:59;;;;;;;6.88;1.58;;;17.80;99.90;;;;;;5069593;28;20531;-79
2023/07/19 08:10:24;;;;;;;4.72;1.05;;;17.80;99.90;;;;;;5066322;28;20057;-79
2023/07/19 08:12:50;;;;;;;3.30;1.00;;;17.80;99.90;;;;;;5069300;28;20075;-80
2023/07/19 08:15:15;;;;;;;2.97;1.00;;;17.80;99.90;;;;;;5067542;28;20490;-78
2023/07/19 08:17:41;;;;;;;6.75;0.98;;;17.80;99.90;;;;;;5066396;28;20486;-79
2023/07/19 08:20:09;;;;;;;3.97;1.30;;;17.90;99.90;;;;;;5066272;28;20123;-79
2023/07/19 08:23:12;;;;;;;3.60;1.60;;;18.00;99.90;;;;;;5072125;28;20515;-78
2023/07/19 08:25:40;;;;;;;3.92;0.90;;;18.10;99.90;;;;;;5052829;28;20110;-79
2023/07/19 08:28:06;;;;;;;2.95;0.95;;;18.40;99.90;;;;;;5066578;28;20044;-78
2023/07/19 08:30:31;;;;;;;3.13;0.80;;;18.60;99.90;;;;;;5049603;28;20041;-79
2023/07/19 08:32:57;;;;;;;4.15;0.82;;;18.80;99.90;;;;;;5066412;28;20040;-79
2023/07/19 08:35:22;;;;;;;3.53;0.75;;;19.00;99.90;;;;;;5062408;28;20411;-79
2023/07/19 08:37:48;;;;;;;2.97;0.77;;;19.10;99.90;;;;;;5069658;28;20107;-79
2023/07/19 08:40:15;;;;;;;2.88;0.70;;;19.20;99.90;;;;;;5076214;28;20483;-79
2023/07/19 08:42:42;;;;;;;8.02;1.13;;;19.40;99.90;;;;;;5066009;28;20044;-80
2023/07/19 08:45:10;;;;;;;5.25;1.23;;;19.50;99.90;;;;;;5062931;28;20141;-80
2023/07/19 08:47:38;;;;;;;4.60;0.75;;;19.60;99.90;;;;;;5065672;28;20109;-79
2023/07/19 08:50:04;;;;;;;2.38;0.93;;;19.70;99.90;;;;;;5066634;28;20044;-79
2023/07/19 08:52:32;;;;;;;4.38;0.77;;;19.80;99.90;;;;;;5064685;28;20545;-80
2023/07/19 08:54:58;;;;;;;2.65;0.50;;;19.80;99.90;;;;;;5070537;28;20143;-79
2023/07/19 08:57:24;;;;;;;3.90;0.80;;;19.80;99.90;;;;;;5066762;28;20044;-79
2023/07/19 08:59:49;;;;;;;3.42;0.85;;;19.80;99.90;;;;;;5064708;28;20035;-80
2023/07/19 09:02:15;;;;;;;6.38;1.05;;;19.80;99.90;;;;;;5067286;28;20113;-79
2023/07/19 09:05:00;;;;;;;2.90;0.70;;;19.80;99.90;;;;;;5063720;28;20087;-79
2023/07/19 09:07:26;;;;;;;6.72;1.23;;;19.80;99.90;;;;;;5067876;28;20045;-79
2023/07/19 09:09:54;;;;;;;2.13;0.70;;;19.80;99.90;;;;;;5068070;28;20085;-80
2023/07/19 09:12:20;;;;;;;2.55;0.70;;;19.90;99.90;;;;;;5073217;28;20507;-80
2023/07/19 09:14:46;;;;;;;3.58;0.77;;;20.10;99.90;;;;;;5073114;28;20068;-81
2023/07/19 09:17:11;;;;;;;5.95;1.02;;;20.20;99.90;;;;;;5064355;28;20067;-80
2023/07/19 09:19:41;;;;;;;3.95;0.90;;;20.40;99.90;;;;;;5069481;28;20039;-79
2023/07/19 09:22:07;;;;;;;4.75;1.45;;;20.40;99.90;;;;;;5066294;28;20048;-79
2023/07/19 09:24:33;;;;;;;5.95;0.98;;;20.40;99.90;;;;;;5066910;28;20056;-80
2023/07/19 09:27:00;;;;;;;4.13;1.20;;;20.40;99.90;;;;;;5070328;28;20048;-80
2023/07/19 09:29:30;;;;;;;6.55;1.20;;;20.40;99.90;;;;;;5072325;28;20036;-79
2023/07/19 09:32:01;;;;;;;4.50;0.70;;;20.30;99.90;;;;;;5065177;28;20048;-80
2023/07/19 09:34:33;;;;;;;4.85;1.52;;;20.30;99.90;;;;;;5065207;28;20193;-80
2023/07/19 09:36:59;;;;;;;2.58;0.77;;;20.20;99.90;;;;;;5069474;28;20068;-80
2023/07/19 09:39:25;;;;;;;2.83;0.98;;;20.20;99.90;;;;;;5067025;28;20082;-80
2023/07/19 09:41:53;;;;;;;3.85;1.20;;;20.20;99.90;;;;;;5064838;28;20385;-80
2023/07/19 09:44:18;;;;;;;4.30;0.88;;;20.20;99.90;;;;;;5065991;28;20047;-79
2023/07/19 09:46:45;;;;;;;3.83;1.25;;;20.20;99.90;;;;;;5069972;28;20044;-78
2023/07/19 09:49:11;;;;;;;3.28;1.00;;;20.30;99.90;;;;;;5068736;28;20044;-80
2023/07/19 09:51:40;;;;;;;2.70;0.88;;;20.40;99.90;;;;;;5067277;28;20040;-79
2023/07/19 09:54:12;;;;;;;3.80;1.05;;;20.70;99.90;;;;;;5060626;28;20044;-79
2023/07/19 09:56:38;;;;;;;2.30;0.70;;;20.80;99.90;;;;;;5066702;28;20399;-79
2023/07/19 09:59:11;;;;;;;2.20;0.80;;;21.10;99.90;;;;;;5069413;28;20458;-79
2023/07/19 10:01:38;;;;;;;2.80;0.88;;;21.10;99.90;;;;;;5068164;28;20041;-80
2023/07/19 10:04:23;;;;;;;2.78;0.98;;;21.20;99.90;;;;;;5061013;28;20123;-79
2023/07/19 10:07:09;;;;;;;6.03;0.57;;;21.40;99.90;;;;;;5079176;28;20127;-79
2023/07/19 10:09:43;;;;;;;6.00;0.90;;;21.30;99.90;;;;;;5063383;28;20052;-79
2023/07/19 10:12:17;;;;;;;3.97;0.60;;;21.40;99.90;;;;;;5071816;28;20079;-79
2023/07/19 10:14:59;;;;;;;2.63;0.70;;;21.40;99.90;;;;;;5069786;28;20052;-79
2023/07/19 10:17:25;;;;;;;3.72;0.57;;;21.30;99.90;;;;;;5068092;28;20048;-79
2023/07/19 10:20:12;;;;;;;2.08;0.50;;;21.30;99.90;;;;;;5062040;28;20044;-79
2023/07/19 10:22:53;;;;;;;2.78;0.73;;;21.30;99.90;;;;;;5063844;28;20059;-79
2023/07/19 10:25:44;;;;;;;3.78;0.60;;;21.20;99.90;;;;;;5062250;28;20078;-79
2023/07/19 10:28:12;;;;;;;2.35;0.60;;;21.20;99.90;;;;;;5064085;28;20044;-79
2023/07/19 10:30:46;;;;;;;2.80;0.52;;;21.20;99.90;;;;;;5063567;28;20048;-79
2023/07/19 10:33:13;;;;;;;4.80;0.90;;;21.20;99.90;;;;;;5063081;28;20044;-79
2023/07/19 10:35:40;;;;;;;3.63;0.70;;;21.00;99.90;;;;;;5061756;28;20045;-78
2023/07/19 10:38:16;;;;;;;3.08;0.70;;;20.90;99.90;;;;;;5060267;28;20040;-79
2023/07/19 10:40:47;;;;;;;6.00;0.57;;;20.80;99.90;;;;;;5061488;28;20093;-78
2023/07/19 10:43:13;;;;;;;5.20;1.08;;;20.60;99.90;;;;;;5060309;28;20530;-79
2023/07/19 10:45:40;;;;;;;4.25;0.57;;;20.50;99.90;;;;;;5068919;28;20036;-78
2023/07/19 10:48:05;;;;;;;5.40;0.75;;;20.30;99.90;;;;;;5062436;28;20040;-77
2023/07/19 10:50:31;;;;;;;4.10;0.68;;;20.20;99.90;;;;;;5066094;28;20129;-78
2023/07/19 10:52:57;;;;;;;2.70;0.52;;;20.10;99.90;;;;;;5063332;28;20117;-78
2023/07/19 10:55:23;;;;;;;4.40;0.68;;;20.10;99.90;;;;;;5063710;28;20395;-79
2023/07/19 10:57:49;;;;;;;1.70;0.60;;;20.10;99.90;;;;;;5058110;28;20044;-78
2023/07/19 11:00:14;;;;;;;3.10;0.70;;;20.00;99.90;;;;;;5058440;28;20119;-78
2023/07/19 11:02:40;;;;;;;5.30;0.70;;;20.00;99.90;;;;;;5063673;28;21859;-78
2023/07/19 11:05:07;;;;;;;4.82;1.00;;;20.00;99.90;;;;;;5069264;28;20025;-78
2023/07/19 11:07:33;;;;;;;3.13;0.82;;;20.10;99.90;;;;;;5067811;28;20040;-78
2023/07/19 11:10:00;;;;;;;2.75;0.70;;;20.10;99.90;;;;;;5062516;28;20036;-80
2023/07/19 11:12:26;;;;;;;2.53;0.80;;;20.20;99.90;;;;;;5060446;28;20075;-78
2023/07/19 11:14:58;;;;;;;5.03;1.15;;;20.30;99.90;;;;;;5062520;28;20263;-79
2023/07/19 11:17:34;;;;;;;3.33;1.35;;;20.40;99.90;;;;;;5066881;28;20036;-78
2023/07/19 11:20:00;;;;;;;3.13;0.90;;;20.50;99.90;;;;;;5067433;28;20064;-79
2023/07/19 11:22:27;;;;;;;3.00;1.15;;;20.50;99.90;;;;;;5064345;28;20109;-78
2023/07/19 11:24:54;;;;;;;2.15;0.98;;;20.50;99.90;;;;;;5067889;28;20044;-79
2023/07/19 11:27:32;;;;;;;1.73;0.77;;;20.60;99.90;;;;;;5066695;28;20039;-79
2023/07/19 11:29:57;;;;;;;2.78;1.08;;;20.60;99.90;;;;;;5064344;28;20036;-78
2023/07/19 11:32:23;;;;;;;2.58;0.90;;;20.50;99.90;;;;;;5066637;28;20032;-79
2023/07/19 11:34:51;;;;;;;3.22;1.15;;;20.40;99.90;;;;;;5062388;28;20135;-79
2023/07/19 11:37:26;;;;;;;2.83;1.33;;;20.20;99.90;;;;;;5067235;28;20149;-78
2023/07/19 11:39:52;;;;;;;3.20;1.10;;;20.10;99.90;;;;;;5062169;28;20044;-78
2023/07/19 11:42:41;;;;;;;3.72;1.38;;;20.00;99.90;;;;;;5064604;28;20403;-78
2023/07/19 11:45:12;;;;;;;3.33;1.52;;;20.00;99.90;;;;;;5064101;28;20040;-79
2023/07/19 11:47:39;;;;;;;3.17;1.00;;;20.10;99.90;;;;;;5061712;28;20033;-78
2023/07/19 11:50:06;;;;;;;4.07;1.45;;;20.20;99.90;;;;;;5061034;28;20046;-79
2023/07/19 11:52:51;;;;;;;7.65;1.40;;;20.40;99.90;;;;;;5061805;28;20174;-79
2023/07/19 11:55:19;;;;;;;3.22;1.60;;;20.70;99.90;;;;;;5058218;28;20045;-78
2023/07/19 11:57:47;;;;;;;5.15;1.45;;;20.80;99.90;;;;;;5058915;28;20119;-78
2023/07/19 12:00:14;;;;;;;5.30;1.50;;;21.10;99.90;;;;;;5063833;28;20073;-78
2023/07/19 12:02:41;;;;;;;4.05;1.65;;;21.20;99.90;;;;;;5068279;28;20051;-79
2023/07/19 12:05:07;;;;;;;4.10;1.10;;;21.60;99.90;;;;;;5067055;28;20155;-79
2023/07/19 12:07:33;;;;;;;2.95;1.17;;;21.70;99.90;;;;;;5041262;28;20036;-78
2023/07/19 12:10:03;;;;;;;4.18;1.45;;;21.60;99.90;;;;;;5058908;28;20173;-78
2023/07/19 12:12:28;;;;;;;4.50;1.30;;;21.50;99.90;;;;;;5061632;28;20124;-78
2023/07/19 12:14:54;;;;;;;2.97;2.10;;;21.40;99.90;;;;;;5065990;28;20093;-79
2023/07/19 12:17:20;;;;;;;5.40;1.88;;;21.30;99.90;;;;;;5061521;28;20399;-78
2023/07/19 12:19:45;;;;;;;6.95;2.50;;;21.20;99.90;;;;;;5070115;28;20406;-79
2023/07/19 12:22:11;;;;;;;3.97;1.92;;;21.20;99.90;;;;;;5067614;28;20036;-78
2023/07/19 12:24:36;;;;;;;4.18;1.85;;;21.20;99.90;;;;;;5065048;28;20079;-80
2023/07/19 12:27:02;;;;;;;3.70;1.33;;;21.10;99.90;;;;;;5063951;28;20040;-79
2023/07/19 12:29:28;;;;;;;6.22;2.10;;;21.10;99.90;;;;;;5063000;28;20032;-79
2023/07/19 12:31:53;;;;;;;7.45;1.23;;;21.10;99.90;;;;;;5063764;28;20039;-79
2023/07/19 12:34:20;;;;;;;2.75;1.17;;;21.00;99.90;;;;;;5063985;28;20071;-79
2023/07/19 12:36:50;;;;;;;2.08;1.20;;;21.00;99.90;;;;;;5064428;28;20036;-79
2023/07/19 12:39:18;;;;;;;10.27;2.67;;;20.90;99.90;;;;;;5064889;28;20044;-80
2023/07/19 12:41:44;;;;;;;7.70;2.70;;;20.70;99.90;;;;;;5065303;28;20724;-79
2023/07/19 12:44:10;;;;;;;10.32;2.40;;;20.50;99.90;;;;;;5069758;28;20081;-79